• Join FlightAware (Why Join?)
  • Login
  • US Flag 
03:35AM EDT


 

Airport Tracker/Info


-or-


 

Live Flight TrackerFlight Track Log ✈ N546QS ✈ 01-Jun-2013 ✈ KMRY - KBOS

Flight Track Log - Related Links

Times and Time Zones

All times are in EDT time to prevent confusion due to time zone crossing. See the N546QS flight status page for this flight to view local times or setup timezone preferences in your user account.

Time Position Orientation Groundspeed Altitude Reporting Facility
EDT Latitude Longitude Course Direction KTS MPH feet Rate Location/Type
11:14AM 36.6175 -121.8875 76° East 220 253 41,000  Level Oakland Center
11:15AM 36.6567 -121.8436 42° Northeast 298 343 6,900 -15,000 Descending Oakland Center
11:16AM 36.6575 -121.7461 89° East 279 321 10,500 3,300 Climbing Oakland Center
11:17AM 36.6656 -121.6408 85° East 299 344 13,700 2,640 Climbing Oakland Center
11:18AM 36.6739 -121.5278 85° East 318 366 15,900 1,920 Climbing Oakland Center
11:19AM 36.6794 -120.9863 76° East  Level FlightAware Approximate
11:19AM 36.6819 -121.3944 86° East 372 428 17,700  Level Oakland Center
11:20AM 36.6903 -121.2458 86° East 419 482 19,900 2,340 Climbing Oakland Center
11:21AM 36.6992 -121.0928 86° East 439 505 22,500 2,280 Climbing Oakland Center
11:22AM 36.7081 -120.9339 86° East 453 521 24,600 2,160 Climbing Oakland Center
11:23AM 36.7483 -120.7822 72° East 469 540 26,900 1,980 Climbing Oakland Center
11:24AM 36.8750 -120.6778 33° Northeast 490 564 28,700 2,100 Climbing Oakland Center
11:25AM 36.9997 -120.5992 27° Northeast 498 573 31,200 2,520 Climbing Oakland Center
11:26AM 37.1242 -120.5247 25° Northeast 497 572 33,900 2,820 Climbing Oakland Center
11:27AM 37.2292 -120.4314 35° Northeast 473 544 37,000 2,220 Climbing Oakland Center
11:28AM 37.3150 -120.3111 48° Northeast 462 532 38,500 1,440 Climbing Oakland Center
11:29AM 37.4022 -120.1858 49° Northeast 472 543 40,000 1,200 Climbing Oakland Center
11:30AM 37.4892 -120.0600 49° Northeast 475 547 41,000 480 Climbing Oakland Center
11:31AM 37.5969 -119.9047 49° Northeast 486 559 41,000 240 Level Oakland Center
11:32AM 37.6886 -119.7728 49° Northeast 497 572 41,500 540 Climbing Oakland Center
11:33AM 37.7778 -119.6422 49° Northeast 494 568 42,200 660 Climbing Oakland Center
11:34AM 37.8667 -119.5119 49° Northeast 491 565 42,900 660 Climbing Oakland Center
11:35AM 37.9561 -119.3797 49° Northeast 494 568 43,600 540 Climbing Oakland Center
11:36AM 38.0464 -119.2478 49° Northeast 494 568 44,000 180 Climbing Oakland Center
11:37AM 38.1461 -119.1011 49° Northeast 497 572 44,000  Level Oakland Center
11:38AM 38.2369 -118.9669 49° Northeast 501 577 44,000  Level Oakland Center
11:39AM 38.3253 -118.8331 50° Northeast 497 572 44,000  Level Oakland Center
11:40AM 38.4161 -118.6975 49° Northeast 502 578 44,000  Level Oakland Center
11:41AM 38.5064 -118.5631 49° Northeast 502 578 44,000  Level Oakland Center
11:42AM 38.5956 -118.4278 50° Northeast 501 577 44,000  Level Oakland Center
11:43AM 38.6847 -118.2942 49° Northeast 498 573 44,000  Level Oakland Center
11:44AM 38.7739 -118.1583 50° Northeast 500 575 44,000  Level Oakland Center
11:45AM 38.8803 -117.9964 50° Northeast 499 574 44,000  Level Oakland Center
11:46AM 38.9678 -117.8614 50° Northeast 495 570 44,000  Level Oakland Center
11:47AM 39.0564 -117.7258 50° Northeast 498 573 44,000  Level Oakland Center
11:48AM 39.1444 -117.5889 50° Northeast 498 573 44,000  Level Oakland Center
11:49AM 39.2314 -117.4528 50° Northeast 495 570 44,000  Level Oakland Center
11:50AM 39.3228 -117.3122 50° Northeast 497 572 44,000  Level Oakland Center
11:51AM 39.4067 -117.1775 51° Northeast 503 579 44,000  Level Oakland Center
11:52AM 39.5058 -117.0247 50° Northeast 499 574 44,000  Level Oakland Center
11:54AM 39.5886 -116.8894 52° Northeast 499 574 44,000  Level Salt Lake Center
11:55AM 39.6864 -116.7364 50° Northeast 499 574 44,000  Level Oakland Center
11:56AM 39.7700 -116.6008 51° Northeast 500 575 44,000  Level Salt Lake Center
11:57AM 39.8672 -116.4447 51° Northeast 499 574 44,000  Level Salt Lake Center
11:58AM 39.9514 -116.3108 51° Northeast 501 577 44,000  Level Salt Lake Center
11:59AM 40.0483 -116.1539 51° Northeast 501 577 44,000  Level Salt Lake Center
12:00PM 40.1325 -116.0183 51° Northeast 504 580 44,000  Level Salt Lake Center
12:01PM 40.2275 -115.8614 52° Northeast 497 572 44,000  Level Salt Lake Center
12:02PM 40.3125 -115.7256 51° Northeast 502 578 44,000  Level Salt Lake Center
12:03PM 40.3961 -115.5906 51° Northeast 502 578 44,000  Level Salt Lake Center
12:04PM 40.4889 -115.4300 53° Northeast 498 573 44,000  Level Salt Lake Center
12:05PM 40.5700 -115.2917 52° Northeast 499 574 44,000  Level Salt Lake Center
12:06PM 40.6678 -115.1319 51° Northeast 502 578 44,000  Level Salt Lake Center
12:07PM 40.7539 -114.9942 50° Northeast 507 583 44,000  Level Salt Lake Center
12:08PM 40.8442 -114.8272 54° Northeast 503 579 44,000  Level Salt Lake Center
12:09PM 40.9278 -114.6889 51° Northeast 507 583 44,000  Level Salt Lake Center
12:10PM 41.0142 -114.5511 50° Northeast 509 586 44,000  Level Salt Lake Center
12:11PM 41.1033 -114.3906 54° Northeast 506 582 44,000  Level Salt Lake Center
12:12PM 41.1894 -114.2439 52° Northeast 505 581 44,000 180 Level Salt Lake Center
12:13PM 41.2744 -114.0964 52° Northeast 504 580 44,400 240 Climbing Salt Lake Center
12:14PM 41.3592 -113.9500 52° Northeast 501 577 44,500  Climbing Salt Lake Center
12:15PM 41.4622 -113.7686 53° Northeast 508 585 44,500  Level Salt Lake Center
12:16PM 41.5478 -113.6181 53° Northeast 510 587 44,500  Level Salt Lake Center
12:17PM 41.6347 -113.4667 52° Northeast 512 589 44,500  Level Salt Lake Center
12:18PM 41.7206 -113.3153 53° Northeast 511 588 44,500  Level Salt Lake Center
12:19PM 41.8050 -113.1633 53° Northeast 509 586 44,500  Level Salt Lake Center
12:20PM 41.8906 -113.0111 53° Northeast 509 586 44,500  Level Salt Lake Center
12:21PM 41.9758 -112.8586 53° Northeast 510 587 44,500  Level Salt Lake Center
12:22PM 42.0594 -112.7044 54° Northeast 509 586 44,500  Level Salt Lake Center
12:23PM 42.1450 -112.5517 53° Northeast 510 587 44,500  Level Salt Lake Center
12:24PM 42.2328 -112.3550 59° Northeast 509 586 44,500  Level Salt Lake Center
12:25PM 42.2892 -112.1778 67° East 511 588 44,500  Level Salt Lake Center
12:26PM 42.3467 -112.0019 66° East 512 589 44,500  Level Salt Lake Center
12:27PM 42.4022 -111.8294 66° East 504 580 44,500  Level Salt Lake Center
12:28PM 42.4581 -111.6533 67° East 507 583 44,500  Level Salt Lake Center
12:29PM 42.5147 -111.4747 67° East 513 590 44,500  Level Salt Lake Center
12:31PM 42.5714 -111.2961 67° East 515 593 44,500  Level Salt Lake Center
12:32PM 42.6269 -111.1200 67° East 510 587 44,500  Level Salt Lake Center
12:33PM 42.6931 -110.9081 67° East 512 589 44,500  Level Salt Lake Center
12:34PM 42.7475 -110.7339 67° East 516 594 44,600 240 Climbing Salt Lake Center
12:35PM 42.7997 -110.5642 67° East 514 592 45,000 180 Climbing Salt Lake Center
12:36PM 42.8606 -110.3664 67° East 510 587 45,000  Level Salt Lake Center
12:37PM 42.9125 -110.1936 68° East 514 592 45,000  Level Salt Lake Center
12:38PM 42.9722 -109.9947 68° East 511 588 45,000  Level Salt Lake Center
12:39PM 43.0267 -109.8117 68° East 514 592 45,000  Level Salt Lake Center
12:40PM 43.0775 -109.6392 68° East 513 590 45,000  Level Salt Lake Center
12:41PM 43.1372 -109.4361 68° East 515 593 45,000  Level Salt Lake Center
12:42PM 43.1883 -109.2633 68° East 512 589 45,000  Level Salt Lake Center
12:43PM 43.2458 -109.0639 68° East 505 581 45,000  Level Salt Lake Center
12:44PM 43.2947 -108.8947 68° East 501 577 45,000  Level Salt Lake Center
12:45PM 43.3433 -108.7250 68° East 500 575 45,000  Level Salt Lake Center
12:46PM 43.3986 -108.5283 69° East 496 571 45,000  Level Salt Lake Center
12:47PM 43.4469 -108.3589 68° East 498 573 45,000  Level Salt Lake Center
12:48PM 43.5033 -108.1633 68° East 495 570 45,000  Level Salt Lake Center
12:49PM 43.5533 -107.9947 68° East 497 572 45,000  Level Salt Lake Center
12:50PM 43.6114 -107.7975 68° East 501 577 45,000  Level Salt Lake Center
12:51PM 43.6608 -107.6267 68° East 503 579 45,000  Level Salt Lake Center
12:52PM 43.7108 -107.4556 68° East 503 579 45,000  Level Salt Lake Center
12:53PM 43.7653 -107.2589 69° East 492 566 45,000  Level Salt Lake Center
12:54PM 43.8167 -107.0892 67° East 493 567 45,000  Level Denver Center
12:55PM 43.8708 -106.8931 69° East 489 563 45,000  Level Denver Center
12:56PM 43.9231 -106.7133 68° East 491 565 45,000  Level Denver Center
12:57PM 43.9631 -106.5697 69° East 496 571 45,000  Level Denver Center
12:58PM 44.0003 -106.3639 76° East 497 572 45,000  Level Denver Center
12:59PM 44.0022 -106.1472 89° East 502 578 45,000  Level Denver Center
01:00PM 44.0039 -105.9606 89° East 505 581 45,000  Level Denver Center
01:01PM 44.0033 -105.7467 90° East 499 574 45,000  Level Denver Center
01:02PM 44.0044 -105.5597 89° East 502 578 45,000  Level Denver Center
01:03PM 44.0042 -105.3425 90° East 503 579 45,000  Level Denver Center
01:04PM 44.0028 -105.1581 91° East 501 577 45,000  Level Denver Center
01:05PM 44.0014 -104.9419 90° East 501 577 45,000  Level Denver Center
01:06PM 44.0003 -104.7564 90° East 500 575 45,000  Level Denver Center
01:08PM 43.9992 -104.5369 90° East 507 583 45,000  Level Denver Center
01:09PM 43.9978 -104.3539 91° East 499 574 45,000  Level Denver Center
01:10PM 43.9947 -104.1378 91° East 499 574 45,000  Level Denver Center
01:11PM 43.9928 -103.9514 91° East 502 578 45,000  Level Denver Center
01:12PM 43.9897 -103.7650 91° East 503 579 45,000  Level Denver Center
01:13PM 43.9861 -103.5486 91° East 501 577 45,000  Level Denver Center
01:14PM 43.9839 -103.3942 91° East 500 575 45,000  Level Denver Center
01:15PM 43.9803 -103.1500 91° East 498 573 45,000  Level Denver Center
01:16PM 43.9803 -102.9939 90° East 504 580 45,000  Level Denver Center
01:17PM 44.0094 -102.7706 80° East 510 587 45,000  Level Denver Center
01:18PM 44.0367 -102.5839 78° East 498 573 45,000  Level Denver Center
01:19PM 44.0697 -102.3547 79° East 502 578 45,000  Level Denver Center
01:20PM 44.0956 -102.1622 79° East 506 582 45,000  Level Denver Center
01:21PM 44.1200 -101.9717 80° East 503 579 45,000  Level Denver Center
01:22PM 44.1514 -101.7417 79° East 505 581 45,000  Level Denver Center
01:23PM 44.1761 -101.5481 80° East 508 585 45,000  Level Denver Center
01:24PM 44.1892 -101.4750 76° East 505 581 45,000  Level Minneapolis Center
01:25PM 44.2189 -101.2444 80° East 506 582 45,000  Level Minneapolis Center
01:26PM 44.2439 -101.0519 80° East 506 582 45,000  Level Minneapolis Center
01:27PM 44.2686 -100.8594 80° East 506 582 45,000  Level Minneapolis Center
01:28PM 44.2922 -100.6658 80° East 508 585 45,000  Level Minneapolis Center
01:29PM 44.3161 -100.4722 80° East 508 585 45,000  Level Minneapolis Center
01:30PM 44.3403 -100.2783 80° East 509 586 45,000  Level Minneapolis Center
01:31PM 44.3675 -100.0486 81° East 505 581 45,000  Level Minneapolis Center
01:32PM 44.3903 -99.8586 80° East 501 577 45,000  Level Minneapolis Center
01:33PM 44.4131 -99.6664 81° East 503 579 45,000  Level Minneapolis Center
01:34PM 44.4347 -99.4731 81° East 507 583 45,000  Level Minneapolis Center
01:35PM 44.4581 -99.2781 80° East 509 586 45,000  Level Minneapolis Center
01:36PM 44.4783 -99.0867 81° East 504 580 45,000  Level Minneapolis Center
01:37PM 44.5044 -98.8536 81° East 506 582 45,000  Level Minneapolis Center
01:38PM 44.5250 -98.6611 81° East 505 581 45,000  Level Minneapolis Center
01:39PM 44.5453 -98.4681 82° East 503 579 45,000  Level Minneapolis Center
01:40PM 44.5686 -98.2631 81° East 505 581 45,000  Level Minneapolis Center
01:41PM 44.5869 -98.0711 82° East 501 577 45,000  Level Minneapolis Center
01:42PM 44.6019 -97.8764 84° East 502 578 45,000  Level Minneapolis Center
01:43PM 44.6125 -97.6803 86° East 505 581 45,000  Level Minneapolis Center
01:44PM 44.6214 -97.4844 86° East 505 581 45,000  Level Minneapolis Center
01:45PM 44.6325 -97.2464 86° East 510 587 45,000  Level Minneapolis Center
01:46PM 44.6431 -97.0475 86° East 510 587 45,000  Level Minneapolis Center
01:47PM 44.6511 -96.8508 87° East 506 582 45,000  Level Minneapolis Center
01:48PM 44.6606 -96.6500 86° East 513 590 45,000  Level Minneapolis Center
01:49PM 44.6689 -96.4492 87° East 513 590 45,000  Level Minneapolis Center
01:50PM 44.6778 -96.2489 86° East 510 587 45,000  Level Minneapolis Center
01:51PM 44.6858 -96.0503 87° East 507 583 45,000  Level Minneapolis Center
01:53PM 44.6931 -95.8508 87° East 509 586 45,000  Level Minneapolis Center
01:54PM 44.7008 -95.6531 87° East 506 582 45,000  Level Minneapolis Center
01:55PM 44.7086 -95.4169 87° East 505 581 45,000  Level Minneapolis Center
01:56PM 44.7144 -95.2206 88° East 502 578 45,000  Level Minneapolis Center
01:57PM 44.7203 -95.0231 88° East 506 582 45,000  Level Minneapolis Center
01:58PM 44.7261 -94.8253 88° East 507 583 45,000  Level Minneapolis Center
01:59PM 44.7319 -94.6089 88° East 509 586 45,000  Level Minneapolis Center
02:00PM 44.7358 -94.4103 88° East 510 587 45,000  Level Minneapolis Center
02:01PM 44.7383 -94.2111 89° East 511 588 45,000  Level Minneapolis Center
02:02PM 44.7433 -94.0119 88° East 512 589 45,000  Level Minneapolis Center
02:03PM 44.7475 -93.8142 88° East 509 586 45,000  Level Minneapolis Center
02:04PM 44.7519 -93.5750 88° East 512 589 45,000  Level Minneapolis Center
02:05PM 44.7550 -93.3822 89° East 513 590 45,000  Level Minneapolis Center
02:06PM 44.7550 -93.1822 90° East 515 593 45,000  Level Minneapolis Center
02:07PM 44.7503 -92.9547 92° East 513 590 45,000  Level Minneapolis Center
02:08PM 44.7433 -92.7561 93° East 511 588 45,000  Level Minneapolis Center
02:09PM 44.7367 -92.5575 93° East 511 588 45,000  Level Minneapolis Center
02:10PM 44.7303 -92.3581 93° East 512 589 45,000  Level Minneapolis Center
02:11PM 44.7231 -92.1611 93° East 510 587 45,000  Level Minneapolis Center
02:12PM 44.7161 -91.9625 93° East 509 586 45,000  Level Minneapolis Center
02:13PM 44.7078 -91.7631 93° East 512 589 45,000  Level Minneapolis Center
02:14PM 44.7036 -91.5244 91° East 512 589 45,000  Level Minneapolis Center
02:15PM 44.7022 -91.3239 90° East 514 592 45,000  Level Minneapolis Center
02:16PM 44.7017 -91.1242 90° East 514 592 45,000  Level Minneapolis Center
02:17PM 44.6986 -90.9256 91° East 512 589 45,000  Level Minneapolis Center
02:18PM 44.6939 -90.7267 92° East 512 589 45,100 120 Climbing Minneapolis Center
02:19PM 44.6914 -90.4944 91° East 516 594 45,300 180 Climbing Minneapolis Center
02:20PM 44.6869 -90.2936 92° East 514 592 45,500 60 Climbing Minneapolis Center
02:21PM 44.6836 -90.0917 91° East 516 594 45,500  Level Minneapolis Center
02:22PM 44.6789 -89.8922 92° East 513 590 45,500 180 Level Minneapolis Center
02:23PM 44.6736 -89.6617 92° East 506 582 45,900 240 Climbing Minneapolis Center
02:25PM 44.6681 -89.4661 92° East 502 578 46,000  Climbing Minneapolis Center
02:26PM 44.6636 -89.2694 92° East 503 579 46,000  Level Minneapolis Center
02:27PM 44.6578 -89.0719 92° East 505 581 46,000  Level Minneapolis Center
02:28PM 44.6511 -88.8722 93° East 509 586 46,000  Level Minneapolis Center
02:29PM 44.6444 -88.6728 93° East 510 587 46,000  Level Minneapolis Center
02:30PM 44.6381 -88.4739 93° East 508 585 46,000  Level Minneapolis Center
02:31PM 44.6297 -88.2408 93° East 511 588 46,000  Level Minneapolis Center
02:32PM 44.6214 -88.0372 93° East 518 596 46,000  Level Minneapolis Center
02:33PM 44.6136 -87.8494 93° East 518 596 46,000  Level Minneapolis Center
02:34PM 44.6050 -87.6486 93° East 517 595 46,000  Level Minneapolis Center
02:35PM 44.5961 -87.4492 94° East 515 593 46,000 -60 Level Minneapolis Center
02:36PM 44.5853 -87.2100 94° East 515 593 45,900  Descending Minneapolis Center
02:37PM 44.5756 -87.0094 94° East 517 595 46,000  Climbing Minneapolis Center
02:38PM 44.5653 -86.8092 94° East 518 596 46,000  Level Minneapolis Center
02:39PM 44.5561 -86.6100 94° East 516 594 46,000  Level Minneapolis Center
02:40PM 44.5456 -86.4106 94° East 518 596 46,000 -60 Level Minneapolis Center
02:41PM 44.5325 -86.1708 94° East 523 602 45,900  Descending Minneapolis Center
02:42PM 44.5214 -85.9725 94° East 521 600 46,000  Climbing Minneapolis Center
02:43PM 44.5097 -85.7731 95° East 521 600 45,900  Descending Minneapolis Center
02:44PM 44.4961 -85.5750 95° East 518 596 46,000  Climbing Minneapolis Center
02:45PM 44.4253 -85.4106 121° Southeast 493 567 46,000  Level Minneapolis Center
02:46PM 44.3372 -85.2211 123° Southeast 487 560 46,000  Level Minneapolis Center
02:47PM 44.2639 -85.0617 123° Southeast 489 563 46,000  Level Minneapolis Center
02:48PM 44.1928 -84.9017 122° Southeast 488 562 46,000 60 Level Minneapolis Center
02:49PM 44.1214 -84.7419 122° Southeast 487 560 46,200 180 Climbing Minneapolis Center
02:50PM 44.0600 -84.5747 117° Southeast 502 578 46,400 120 Climbing Minneapolis Center
02:51PM 44.0647 -84.3744 88° East 524 603 46,500 240 Climbing Minneapolis Center
02:52PM 44.0869 -84.1722 81° East 529 609 46,900 240 Climbing Minneapolis Center
02:53PM 44.1100 -83.9306 82° East 528 608 47,000  Climbing Minneapolis Center
02:54PM 44.1297 -83.7278 82° East 529 609 47,000  Level Minneapolis Center
02:55PM 44.1475 -83.5247 83° East 531 611 47,000 -60 Level Minneapolis Center
02:56PM 44.1653 -83.3206 83° East 531 611 46,900  Descending Minneapolis Center
02:58PM 44.1831 -83.1233 83° East 531 611 47,000 60 Climbing Minneapolis Center
02:58PM 44.1833 -83.0000 90° East 530 610 47,000  Level Toronto Center
02:59PM 44.1833 -82.8167 90° East 530 610 47,000  Level Toronto Center
03:00PM 44.2167 -82.6167 77° East 530 610 47,000  Level Toronto Center
03:01PM 44.2333 -82.4000 84° East 530 610 47,000  Level Toronto Center
03:02PM 44.2167 -82.2000 97° East 530 610 47,000  Level Toronto Center
03:03PM 44.1833 -82.0000 103° East 520 598 47,000  Level Toronto Center
03:04PM 44.1500 -81.8167 104° East 520 598 47,000  Level Toronto Center
03:05PM 44.1333 -81.6000 96° East 520 598 47,000  Level Toronto Center
03:06PM 44.1167 -81.4000 97° East 520 598 47,000  Level Toronto Center
03:07PM 44.1000 -81.1833 96° East 530 610 47,000  Level Toronto Center
03:08PM 44.0833 -81.0000 97° East 520 598 47,000  Level Toronto Center
03:09PM 44.1000 -80.8167 83° East 520 598 47,000  Level Toronto Center
03:10PM 44.0833 -80.6000 96° East 520 598 47,000  Level Toronto Center
03:11PM 44.0667 -80.4000 97° East 520 598 47,000  Level Toronto Center
03:12PM 44.0500 -80.1833 96° East 520 598 47,000  Level Toronto Center
03:13PM 44.0333 -80.0000 97° East 520 598 47,000  Level Toronto Center
03:14PM 44.0167 -79.8167 97° East 520 598 47,000  Level Toronto Center
03:15PM 44.0000 -79.6167 97° East 510 587 47,000  Level Toronto Center
03:16PM 43.9833 -79.4167 97° East 510 587 47,000  Level Toronto Center
03:17PM 43.9667 -79.2167 97° East 510 587 47,000  Level Toronto Center
03:18PM 43.9500 -79.0333 97° East 510 587 47,000  Level Toronto Center
03:19PM 43.9333 -78.8500 97° East 500 575 47,000  Level Toronto Center
03:20PM 43.9167 -78.6333 96° East 500 575 47,000  Level Toronto Center
03:21PM 43.8833 -78.4500 104° East 500 575 47,000  Level Toronto Center
03:22PM 43.8667 -78.2500 97° East 500 575 47,000  Level Toronto Center
03:23PM 43.8500 -78.0667 97° East 500 575 47,000  Level Toronto Center
03:24PM 43.8333 -77.8833 97° East 500 575 47,000  Level Toronto Center
03:25PM 43.8167 -77.6667 96° East 510 587 47,000  Level Toronto Center
03:26PM 43.8167 -77.4833 90° East 510 587 47,000  Level Toronto Center
03:27PM 43.7833 -77.2833 103° East 510 587 47,000  Level Toronto Center
03:28PM 43.7667 -77.1000 97° East 510 587 47,000  Level Toronto Center
03:29PM 43.7667 -76.9167 90° East 510 587 47,000  Level Toronto Center
03:30PM 43.7667 -76.7000 90° East 510 587 47,000  Level Toronto Center
03:31PM 43.7739 -76.5811 85° East 504 580 47,000  Level Boston Center
03:32PM 43.7661 -76.3908 93° East 504 580 47,000  Level Boston Center
03:33PM 43.7578 -76.2006 93° East 498 573 47,000  Level Boston Center
03:34PM 43.7517 -76.0044 92° East 503 579 47,000  Level Boston Center
03:35PM 43.7469 -75.8144 92° East 503 579 47,000  Level Boston Center
03:36PM 43.7408 -75.6617 93° East 503 579 47,000  Level Boston Center
03:37PM 43.7322 -75.4514 93° East 503 579 47,000  Level Boston Center
03:38PM 43.7222 -75.2614 94° East 503 579 47,000  Level Boston Center
03:39PM 43.7144 -75.0714 93° East 498 573 47,000  Level Boston Center
03:40PM 43.7058 -74.8872 94° East 498 573 47,000  Level Boston Center
03:41PM 43.6953 -74.6972 94° East 498 573 47,000  Level Boston Center
03:42PM 43.6861 -74.5158 94° East 493 567 47,000  Level Boston Center
03:43PM 43.6750 -74.3231 94° East 493 567 47,000  Level Boston Center
03:44PM 43.6653 -74.1392 94° East 488 562 47,000  Level Boston Center
03:45PM 43.6553 -73.9553 94° East 482 555 47,000  Level Boston Center
03:46PM 43.6431 -73.7683 95° East 482 555 47,000  Level Boston Center
03:47PM 43.6325 -73.5817 94° East 482 555 47,000  Level Boston Center
03:48PM 43.6219 -73.3722 94° East 482 555 47,000  Level Boston Center
03:49PM 43.6089 -73.1856 95° East 488 562 47,000  Level Boston Center
03:50PM 43.6014 -73.0364 94° East 488 562 47,000  Level Boston Center
03:51PM 43.5917 -72.8328 94° East 488 562 47,000  Level Boston Center
03:52PM 43.5819 -72.6464 94° East 483 556 47,000 -960 Level Boston Center
03:53PM 43.5675 -72.4631 96° East 483 556 45,100 -2,040 Descending Boston Center
03:54PM 43.5547 -72.2683 95° East 483 556 43,000 -2,100 Descending Boston Center
03:55PM 43.5397 -72.0878 96° East 483 556 41,000 -2,100 Descending Boston Center
03:56PM 43.5286 -71.9047 95° East 478 550 38,900 -2,100 Descending Boston Center
03:57PM 43.5131 -71.7214 97° East 483 556 36,800 -2,160 Descending Boston Center
03:58PM 43.4992 -71.5356 96° East 483 556 34,600 -2,160 Descending Boston Center
03:59PM 43.4850 -71.3469 96° East 483 556 32,500 -2,220 Descending Boston Center
04:00PM 43.4747 -71.1583 94° East 483 556 30,200 -2,280 Descending Boston Center
04:01PM 43.4581 -70.9669 97° East 488 562 28,000 -2,160 Descending Boston Center
04:02PM 43.4428 -70.7814 96° East 494 568 25,900 -2,100 Descending Boston Center
04:03PM 43.3925 -70.6172 113° Southeast 470 541 23,800 -2,040 Descending Boston Center
04:04PM 43.2889 -70.5233 147° Southeast 425 489 21,900 -1,860 Descending Boston Center
04:05PM 43.1753 -70.4614 158° South 425 489 20,100 -1,680 Descending Boston Center
04:06PM 43.0764 -70.4078 158° South 425 489 18,600 -1,800 Descending Boston Center
04:07PM 42.9564 -70.3408 158° South 420 483 16,600 -1,800 Descending Boston Center
04:08PM 42.8636 -70.2844 156° South 420 483 15,100 -1,440 Descending Boston Center
04:09PM 42.7603 -70.2231 156° South 399 459 13,500 -1,440 Descending Boston Center
04:10PM 42.6639 -70.1981 169° South 319 367 12,000 -1,500 Descending Boston Center
04:11PM 42.5981 -70.2514 211° Southwest 273 314 10,600 -1,740 Descending Boston Center
04:12PM 42.5431 -70.3181 222° Southwest 268 308 8,600 -2,040 Descending Boston Center
04:13PM 42.4881 -70.3819 221° Southwest 268 308 6,600 -1,980 Descending Boston Center
04:14PM 42.4519 -70.4619 239° Southwest 258 297 4,700 -1,320 Descending Boston Center
04:15PM 42.4369 -70.5525 257° West 245 282 4,000 -360 Descending Boston Center
04:16PM 42.4217 -70.6456 257° West 250 288 4,000 -180 Level Boston Center
04:17PM 42.4083 -70.7247 257° West 241 277 3,700 -720 Descending Boston Center
04:18PM 42.3931 -70.8153 257° West 222 255 2,500 -1,020 Descending Boston Center
04:19PM 42.3811 -70.8717 254° West 201 231 1,700 -840 Descending Boston Center
04:20PM 42.3667 -70.9167 247° West 168 193 1,000 -780 Descending KA90
04:21PM 42.3667 -70.9667 270° West 122 140 300 -720 Descending KA90
04:23PM 42.3630 -71.0064 North  Level Estimated